CheckWX is a tool to help pilots better visualize weather data.  It is not intended as a substitute for an official pre-flight weather briefing.

22:44:34 UTC

KEUG METAR
Mahlon Sweet Field Airport
Eugene, Oregon, USA
Current

51 mins ago

KEUG 202154Z 36006KT 10SM FEW200 SCT250 12/01 A3021 RMK AO2 SLP230 T01170011
Observed
Feb-20 @ 21:54 UTC
Wind
  • 360° at 6 KTS
Visibility
10 SM
Flight Rules
VFR
Cloud Levels
  • Few at 20,000' AGL
  • Scattered at 25,000' AGL
Temperature
12°C / 54°F
Dewpoint
C / 34°F
Humidity
47%
Altimeter
30.21" Hg
Pressure
1023.02 hPa
Previous

2 hours ago

KEUG 202054Z 35006KT 10SM FEW200 FEW250 11/01 A3022 RMK AO2 SLP236 T01060006 58007
Observed
Feb-20 @ 20:54 UTC
Wind
  • 350° at 6 KTS
Visibility
10 SM
Flight Rules
VFR
Cloud Levels
  • Few at 20,000' AGL
  • Few at 25,000' AGL
Temperature
11°C / 52°F
Dewpoint
C / 34°F
Humidity
50%
Altimeter
30.22" Hg
Pressure
1023.42 hPa
Previous

3 hours ago

KEUG 201954Z 01006KT 10SM FEW200 SCT250 09/M01 A3024 RMK AO2 SLP242 T00891006
Observed
Feb-20 @ 19:54 UTC
Wind
  • 010° at 6 KTS
Visibility
10 SM
Flight Rules
VFR
Cloud Levels
  • Few at 20,000' AGL
  • Scattered at 25,000' AGL
Temperature
C / 48°F
Dewpoint
-1°C / 30°F
Humidity
50%
Altimeter
30.24" Hg
Pressure
1024.02 hPa